createdAt,value
2023-02-01T00:05:33.992Z,1.95
2023-02-01T00:08:01.401Z,2.83
2023-02-01T00:12:56.313Z,3.28
2023-02-01T00:15:24.171Z,2.72
2023-02-01T00:17:56.075Z,2.80
2023-02-01T00:20:24.959Z,2.58
2023-02-01T00:22:52.655Z,2.37
2023-02-01T00:25:20.096Z,1.83
2023-02-01T00:27:51.449Z,2.42
2023-02-01T00:30:19.938Z,2.75
2023-02-01T08:28:11.804Z,2.60
2023-02-01T08:30:39.698Z,3.00
2023-02-01T08:33:10.138Z,3.40
2023-02-01T08:35:43.937Z,3.33
2023-02-01T08:38:11.955Z,3.05
2023-02-01T08:43:06.781Z,2.95
2023-02-01T08:50:29.317Z,3.03
2023-02-01T08:52:57.004Z,2.80
2023-02-01T08:55:26.225Z,2.62
2023-02-01T08:57:53.632Z,2.87
2023-02-01T09:00:21.730Z,2.50
2023-02-01T09:02:49.255Z,3.08
2023-02-01T09:05:19.276Z,2.62
2023-02-01T09:12:44.521Z,4.05
2023-02-01T09:15:12.299Z,2.58
2023-02-01T09:25:03.024Z,2.85
2023-02-01T09:27:30.565Z,1.90
2023-02-01T09:29:58.773Z,2.33
2023-02-01T09:32:26.341Z,2.62
2023-02-01T09:34:53.903Z,2.58
2023-02-01T09:37:21.723Z,2.05
2023-02-01T09:39:49.267Z,2.35
2023-02-01T09:42:50.726Z,2.72
2023-02-01T09:45:21.535Z,2.47
2023-02-01T09:47:53.915Z,2.10
2023-02-01T09:50:24.789Z,3.08
2023-02-01T09:52:58.390Z,2.60
2023-02-01T09:55:47.725Z,2.45
2023-02-01T10:00:53.211Z,3.05
2023-02-01T10:03:21.808Z,3.15
2023-02-01T10:06:01.395Z,3.55
2023-02-01T10:08:39.029Z,2.55
2023-02-01T10:11:32.555Z,3.25
2023-02-01T10:14:05.095Z,3.33
2023-02-01T10:16:42.132Z,3.33
2023-02-01T10:19:54.382Z,3.83
2023-02-01T10:23:05.009Z,3.67
2023-02-01T10:25:41.228Z,3.75
2023-02-01T10:28:14.383Z,3.47
2023-02-01T10:30:45.862Z,2.37
2023-02-01T10:33:35.740Z,2.95
2023-02-01T10:38:34.589Z,3.33
2023-02-01T10:41:05.350Z,3.05
2023-02-01T10:43:35.010Z,3.17
2023-02-01T10:46:03.049Z,3.22
2023-02-01T10:48:31.213Z,2.90
2023-02-01T10:51:01.887Z,3.08
2023-02-01T10:53:40.647Z,3.22
2023-02-01T10:56:10.024Z,3.30
2023-02-01T10:58:45.032Z,3.97
2023-02-01T11:01:32.116Z,4.05
2023-02-01T11:04:02.003Z,4.07
2023-02-01T11:06:41.673Z,4.03
2023-02-01T11:09:09.010Z,3.55
2023-02-01T11:12:00.534Z,3.92
2023-02-01T11:14:35.213Z,3.47
2023-02-01T11:19:32.572Z,3.80
2023-02-01T11:22:01.629Z,3.72
2023-02-01T11:24:34.452Z,3.83
2023-02-01T11:27:06.713Z,3.90
2023-02-01T11:29:40.250Z,4.00
2023-02-01T11:32:09.352Z,4.00
2023-02-01T11:34:40.280Z,4.28
2023-02-01T11:37:16.960Z,3.80
2023-02-01T11:39:57.569Z,4.15
2023-02-01T11:42:25.995Z,4.20
2023-02-01T11:45:29.944Z,4.75
2023-02-01T11:47:59.313Z,4.55
2023-02-01T11:50:56.143Z,3.45
2023-02-01T11:53:56.195Z,3.55
2023-02-01T11:56:34.739Z,4.93
